createdAt,value
2022-10-28T00:01:37.343Z,100.00
2022-10-28T00:04:06.640Z,100.00
2022-10-28T00:06:37.291Z,100.00
2022-10-28T00:09:09.803Z,100.00
2022-10-28T00:11:41.114Z,100.00
2022-10-28T00:14:11.321Z,100.00
2022-10-28T00:16:41.156Z,100.00
2022-10-28T00:19:12.520Z,100.00
2022-10-28T00:21:43.796Z,100.00
2022-10-28T00:24:15.200Z,100.00
2022-10-28T00:26:45.167Z,100.00
2022-10-28T00:29:16.330Z,100.00
2022-10-28T00:31:45.997Z,100.00
2022-10-28T00:34:17.758Z,100.00
2022-10-28T00:36:48.015Z,100.00
2022-10-28T00:39:20.234Z,100.00
2022-10-28T00:41:53.752Z,100.00
2022-10-28T00:44:57.046Z,100.00
2022-10-28T00:47:45.587Z,100.00
2022-10-28T00:50:21.893Z,100.00
2022-10-28T00:52:53.906Z,100.00
2022-10-28T00:55:26.292Z,100.00
2022-10-28T00:57:56.929Z,100.00
2022-10-28T01:00:26.927Z,100.00
2022-10-28T01:02:58.208Z,100.00
2022-10-28T01:05:30.164Z,100.00
2022-10-28T01:08:03.459Z,100.00
2022-10-28T01:10:49.606Z,100.00
2022-10-28T01:13:30.754Z,100.00
2022-10-28T01:16:06.568Z,100.00
2022-10-28T01:18:44.037Z,100.00
2022-10-28T01:21:40.899Z,100.00
2022-10-28T01:24:31.843Z,100.00
2022-10-28T01:27:33.723Z,100.00
2022-10-28T01:30:11.335Z,100.00
2022-10-28T01:32:53.987Z,100.00
2022-10-28T01:38:19.279Z,100.00
2022-10-28T01:40:58.778Z,100.00
2022-10-28T01:43:32.347Z,100.00
2022-10-28T01:46:06.188Z,100.00
2022-10-28T01:48:41.649Z,100.00
2022-10-28T01:51:15.380Z,100.00
2022-10-28T01:53:48.805Z,100.00
2022-10-28T01:56:22.880Z,100.00
2022-10-28T01:58:53.927Z,100.00
2022-10-28T02:01:24.995Z,100.00
2022-10-28T02:03:56.851Z,100.00
2022-10-28T02:06:28.755Z,100.00
2022-10-28T02:09:15.836Z,100.00
2022-10-28T02:12:06.203Z,100.00
2022-10-28T02:14:50.043Z,100.00
2022-10-28T02:17:25.701Z,100.00
2022-10-28T02:20:02.852Z,100.00
2022-10-28T02:22:42.338Z,100.00
2022-10-28T02:25:17.243Z,100.00
2022-10-28T02:27:52.556Z,100.00
2022-10-28T02:30:25.328Z,100.00
2022-10-28T02:32:59.344Z,100.00
2022-10-28T02:35:33.783Z,100.00
2022-10-28T02:38:13.324Z,100.00
2022-10-28T02:40:47.732Z,100.00
2022-10-28T02:43:19.324Z,100.00
2022-10-28T02:45:53.105Z,100.00
2022-10-28T02:48:29.151Z,100.00
2022-10-28T02:51:08.715Z,100.00
2022-10-28T02:53:49.238Z,100.00
2022-10-28T02:56:21.208Z,100.00
2022-10-28T02:58:50.607Z,100.00
2022-10-28T03:01:20.216Z,100.00
2022-10-28T03:03:48.994Z,100.00
2022-10-28T03:06:19.090Z,100.00
2022-10-28T03:08:47.633Z,100.00
2022-10-28T03:11:16.739Z,100.00
2022-10-28T03:13:45.300Z,100.00
2022-10-28T03:16:14.120Z,100.00
2022-10-28T03:18:42.668Z,100.00
2022-10-28T03:21:11.101Z,100.00
2022-10-28T03:23:41.189Z,100.00
2022-10-28T03:26:12.651Z,100.00
2022-10-28T03:28:41.777Z,100.00
2022-10-28T03:31:10.888Z,100.00
2022-10-28T03:33:39.640Z,100.00
2022-10-28T03:36:08.913Z,100.00
2022-10-28T03:38:37.735Z,100.00
2022-10-28T03:41:08.121Z,100.00
2022-10-28T03:43:36.741Z,100.00
2022-10-28T03:46:05.351Z,100.00
2022-10-28T03:48:33.855Z,100.00
2022-10-28T03:51:02.527Z,100.00
2022-10-28T03:53:31.547Z,100.00
2022-10-28T03:56:01.850Z,100.00
2022-10-28T03:58:33.499Z,100.00
2022-10-28T04:01:04.865Z,100.00
2022-10-28T04:03:35.123Z,100.00
2022-10-28T04:06:03.781Z,100.00
2022-10-28T04:08:32.350Z,100.00
2022-10-28T04:11:01.025Z,100.00
2022-10-28T04:13:29.570Z,100.00
2022-10-28T04:16:00.068Z,100.00
2022-10-28T04:18:28.636Z,100.00
2022-10-28T04:20:57.577Z,100.00
2022-10-28T04:23:26.294Z,100.00
2022-10-28T04:25:55.659Z,100.00
2022-10-28T04:28:25.556Z,100.00
2022-10-28T04:30:54.545Z,100.00
2022-10-28T04:33:24.903Z,100.00
2022-10-28T04:35:53.621Z,100.00
2022-10-28T04:38:22.606Z,100.00
2022-10-28T04:40:51.785Z,100.00
2022-10-28T04:43:20.487Z,100.00
2022-10-28T04:45:49.549Z,100.00
2022-10-28T04:48:18.136Z,100.00
2022-10-28T04:50:48.416Z,100.00
2022-10-28T04:53:17.217Z,100.00
2022-10-28T04:55:45.801Z,100.00
2022-10-28T04:58:15.010Z,100.00
2022-10-28T05:00:43.688Z,100.00
2022-10-28T05:03:12.444Z,100.00
2022-10-28T05:05:41.087Z,100.00
2022-10-28T05:08:11.268Z,100.00
2022-10-28T05:10:40.103Z,100.00
2022-10-28T05:13:08.715Z,100.00
2022-10-28T05:15:37.534Z,100.00
2022-10-28T05:18:06.081Z,100.00
2022-10-28T05:20:34.850Z,100.00
2022-10-28T05:23:04.842Z,100.00
2022-10-28T05:25:35.523Z,100.00
2022-10-28T05:28:04.911Z,100.00
2022-10-28T05:30:33.902Z,100.00
2022-10-28T05:33:03.640Z,100.00
2022-10-28T05:35:32.858Z,100.00
2022-10-28T05:38:04.697Z,100.00
2022-10-28T05:40:35.612Z,100.00
2022-10-28T05:43:05.176Z,100.00
2022-10-28T05:45:34.101Z,100.00
2022-10-28T05:48:03.276Z,100.00
2022-10-28T05:50:32.450Z,100.00
2022-10-28T05:53:03.479Z,100.00
2022-10-28T05:55:32.704Z,100.00
2022-10-28T05:58:03.446Z,100.00
2022-10-28T06:00:32.558Z,100.00
2022-10-28T06:03:09.603Z,100.00
2022-10-28T06:05:39.633Z,100.00
2022-10-28T06:08:12.389Z,100.00
2022-10-28T06:10:43.580Z,100.00
2022-10-28T06:13:12.379Z,100.00
2022-10-28T06:15:41.524Z,100.00
2022-10-28T06:18:14.323Z,100.00
2022-10-28T06:20:53.614Z,100.00
2022-10-28T06:23:24.695Z,100.00
2022-10-28T06:28:33.139Z,100.00
2022-10-28T06:31:02.922Z,100.00
2022-10-28T06:33:31.910Z,100.00
2022-10-28T06:36:03.965Z,100.00
2022-10-28T06:38:32.401Z,100.00
2022-10-28T06:41:01.466Z,100.00
2022-10-28T06:43:32.832Z,100.00
2022-10-28T06:46:02.472Z,100.00
2022-10-28T06:48:33.501Z,100.00
2022-10-28T06:51:02.843Z,100.00
2022-10-28T06:53:32.499Z,100.00
2022-10-28T06:56:02.999Z,100.00
2022-10-28T06:58:31.905Z,100.00
2022-10-28T07:01:15.513Z,100.00
2022-10-28T07:03:49.581Z,100.00
2022-10-28T07:06:19.112Z,100.00
2022-10-28T07:08:49.325Z,100.00
2022-10-28T07:11:19.465Z,100.00
2022-10-28T07:13:49.010Z,100.00
2022-10-28T07:16:19.614Z,100.00
2022-10-28T07:18:48.435Z,100.00
2022-10-28T07:21:18.588Z,100.00
2022-10-28T07:23:50.458Z,100.00
2022-10-28T07:26:19.508Z,100.00
2022-10-28T07:28:48.609Z,100.00
2022-10-28T07:31:19.296Z,100.00
2022-10-28T07:33:53.693Z,100.00
2022-10-28T07:36:22.873Z,100.00
2022-10-28T07:38:53.697Z,100.00
2022-10-28T07:41:23.492Z,100.00
2022-10-28T07:43:55.483Z,100.00
2022-10-28T07:46:26.284Z,100.00
2022-10-28T07:48:54.883Z,100.00
2022-10-28T07:51:24.589Z,100.00
2022-10-28T07:53:53.800Z,100.00
2022-10-28T07:56:25.695Z,100.00
2022-10-28T07:58:54.805Z,100.00
2022-10-28T08:01:24.040Z,100.00
2022-10-28T08:03:56.856Z,100.00
2022-10-28T08:06:26.072Z,100.00
2022-10-28T08:08:56.712Z,100.00
2022-10-28T08:11:26.392Z,100.00
2022-10-28T08:13:56.576Z,100.00
2022-10-28T08:16:25.533Z,100.00
2022-10-28T08:18:56.870Z,100.00
2022-10-28T08:21:28.710Z,100.00
2022-10-28T08:24:00.836Z,100.00
2022-10-28T08:26:29.529Z,100.00
2022-10-28T08:28:58.462Z,100.00
2022-10-28T08:31:27.565Z,100.00
2022-10-28T08:33:57.807Z,100.00
2022-10-28T08:36:29.770Z,100.00
2022-10-28T08:38:59.730Z,100.00
2022-10-28T08:41:36.357Z,100.00
2022-10-28T08:44:39.803Z,100.00
2022-10-28T08:47:19.444Z,100.00
2022-10-28T08:49:54.391Z,100.00
2022-10-28T08:52:34.551Z,100.00
2022-10-28T08:55:07.801Z,100.00
2022-10-28T08:57:41.547Z,100.00
2022-10-28T09:00:23.030Z,100.00
2022-10-28T09:03:17.808Z,100.00
2022-10-28T09:05:51.467Z,100.00
2022-10-28T09:11:44.702Z,100.00
2022-10-28T09:14:30.414Z,100.00
2022-10-28T09:20:02.404Z,100.00
2022-10-28T09:25:39.185Z,100.00
2022-10-28T09:28:26.212Z,100.00
2022-10-28T09:34:13.333Z,100.00
2022-10-28T09:36:46.582Z,100.00
2022-10-28T09:39:25.326Z,100.00
2022-10-28T09:44:50.794Z,100.00
2022-10-28T09:47:24.499Z,100.00
2022-10-28T09:52:56.879Z,100.00
2022-10-28T09:55:27.722Z,100.00
2022-10-28T10:03:30.402Z,100.00
2022-10-28T10:06:04.271Z,100.00
2022-10-28T10:14:21.460Z,100.00
2022-10-28T10:16:56.194Z,100.00
2022-10-28T10:19:25.208Z,100.00
2022-10-28T10:24:47.609Z,100.00
2022-10-28T10:27:23.537Z,100.00
2022-10-28T10:29:56.564Z,100.00
2022-10-28T10:32:28.968Z,100.00
2022-10-28T10:35:02.320Z,100.00
2022-10-28T10:37:35.511Z,99.89
2022-10-28T10:40:19.697Z,100.00
2022-10-28T10:43:03.486Z,100.00
2022-10-28T10:45:39.988Z,100.00
2022-10-28T10:51:10.361Z,100.00
2022-10-28T10:53:43.583Z,100.00
2022-10-28T10:59:22.256Z,100.00
2022-10-28T11:01:56.118Z,100.00
2022-10-28T11:04:28.009Z,100.00
2022-10-28T11:06:58.605Z,100.00
2022-10-28T11:09:32.942Z,99.04
2022-10-28T11:15:00.735Z,81.57
2022-10-28T11:17:34.714Z,75.52
2022-10-28T11:20:25.593Z,65.66
2022-10-28T11:23:05.462Z,62.64
2022-10-28T11:25:38.580Z,63.13
2022-10-28T11:31:29.355Z,65.08
2022-10-28T11:34:15.640Z,75.60
2022-10-28T11:36:59.007Z,83.81
2022-10-28T11:39:37.057Z,82.26
2022-10-28T11:42:21.634Z,75.71
2022-10-28T11:48:05.793Z,61.50
2022-10-28T11:53:57.501Z,55.67
2022-10-28T11:56:35.703Z,56.14
2022-10-28T12:02:34.404Z,52.30
2022-10-28T12:05:10.741Z,56.25
2022-10-28T12:08:03.382Z,52.71
2022-10-28T12:10:47.191Z,53.89
2022-10-28T12:13:21.990Z,55.98
2022-10-28T12:15:56.677Z,56.39
2022-10-28T12:21:43.832Z,53.99
2022-10-28T12:27:15.281Z,70.11
2022-10-28T12:41:19.742Z,86.41
2022-10-28T12:52:41.257Z,88.75
2022-10-28T12:55:22.407Z,86.67
2022-10-28T13:00:50.571Z,88.30
2022-10-28T13:03:19.964Z,87.46
2022-10-28T13:09:18.964Z,82.78
2022-10-28T13:12:23.898Z,85.03
2022-10-28T13:15:18.010Z,85.91
2022-10-28T13:18:02.344Z,86.33
2022-10-28T13:20:48.741Z,87.30
2022-10-28T13:26:24.634Z,87.69
2022-10-28T13:37:33.636Z,87.12
2022-10-28T13:42:50.410Z,87.87
2022-10-28T13:45:55.401Z,88.18
2022-10-28T13:51:47.802Z,88.88
2022-10-28T13:54:28.331Z,88.84
2022-10-28T13:57:05.286Z,89.33
2022-10-28T13:59:49.137Z,89.45
2022-10-28T14:02:40.458Z,89.97
2022-10-28T14:08:00.841Z,90.36
2022-10-28T14:10:31.603Z,91.10
2022-10-28T14:13:03.476Z,92.36
2022-10-28T14:15:35.205Z,93.69
2022-10-28T14:21:16.574Z,94.42
2022-10-28T14:24:10.603Z,95.51
2022-10-28T14:27:32.262Z,96.63
2022-10-28T14:30:18.544Z,98.35
2022-10-28T14:33:04.757Z,98.17
2022-10-28T14:35:44.870Z,98.50
2022-10-28T14:38:42.398Z,99.38
2022-10-28T14:41:38.030Z,99.88
2022-10-28T14:44:20.378Z,99.90
2022-10-28T14:47:11.969Z,100.00
2022-10-28T14:49:43.757Z,99.73
2022-10-28T14:55:08.398Z,100.00
2022-10-28T14:57:37.729Z,100.00
2022-10-28T15:00:09.373Z,100.00
2022-10-28T15:02:39.651Z,100.00
2022-10-28T15:05:18.328Z,100.00
2022-10-28T15:07:50.409Z,100.00
2022-10-28T15:10:23.881Z,100.00
2022-10-28T15:12:55.423Z,100.00
2022-10-28T15:15:25.353Z,100.00
2022-10-28T15:17:55.883Z,100.00
2022-10-28T15:20:27.346Z,100.00
2022-10-28T15:23:14.843Z,100.00
2022-10-28T15:25:44.058Z,100.00
2022-10-28T15:33:46.568Z,100.00
2022-10-28T15:39:10.383Z,100.00
2022-10-28T15:41:44.033Z,100.00
2022-10-28T15:44:32.042Z,100.00
2022-10-28T15:47:01.946Z,100.00
2022-10-28T15:49:35.362Z,100.00
2022-10-28T15:52:22.501Z,100.00
2022-10-28T15:55:00.466Z,100.00
2022-10-28T15:57:32.730Z,100.00
2022-10-28T16:00:22.572Z,100.00
2022-10-28T16:02:56.761Z,100.00
2022-10-28T16:05:46.334Z,100.00
2022-10-28T16:08:24.843Z,100.00
2022-10-28T16:10:57.806Z,100.00
2022-10-28T16:13:30.865Z,100.00
2022-10-28T16:16:03.642Z,100.00
2022-10-28T16:18:36.528Z,100.00
2022-10-28T16:21:06.172Z,100.00
2022-10-28T16:26:28.751Z,100.00
2022-10-28T16:28:57.661Z,100.00
2022-10-28T16:34:17.159Z,100.00
2022-10-28T16:36:46.122Z,100.00
2022-10-28T16:39:15.114Z,100.00
2022-10-28T16:41:45.606Z,100.00
2022-10-28T16:44:22.374Z,100.00
2022-10-28T16:52:25.413Z,100.00
2022-10-28T16:54:55.631Z,100.00
2022-10-28T16:57:26.649Z,100.00
2022-10-28T16:59:55.930Z,100.00
2022-10-28T17:02:29.136Z,100.00
2022-10-28T17:04:59.345Z,100.00
2022-10-28T17:10:17.840Z,100.00
2022-10-28T17:15:33.885Z,100.00
2022-10-28T17:20:48.921Z,100.00
2022-10-28T17:23:18.357Z,100.00
2022-10-28T17:25:57.480Z,100.00
2022-10-28T17:28:27.727Z,100.00
2022-10-28T17:36:41.788Z,100.00
2022-10-28T17:39:16.456Z,100.00
2022-10-28T17:41:46.869Z,100.00
2022-10-28T17:44:17.616Z,100.00
2022-10-28T17:52:20.578Z,100.00
2022-10-28T17:54:49.492Z,100.00
2022-10-28T17:57:18.188Z,100.00
2022-10-28T17:59:50.208Z,100.00
2022-10-28T18:02:18.920Z,100.00
2022-10-28T18:07:34.089Z,100.00
2022-10-28T18:10:02.898Z,100.00
2022-10-28T18:12:32.504Z,100.00
2022-10-28T18:17:50.828Z,100.00
2022-10-28T18:20:19.658Z,100.00
2022-10-28T18:22:48.510Z,100.00
2022-10-28T18:25:17.663Z,100.00
2022-10-28T18:27:46.605Z,100.00
2022-10-28T18:30:19.670Z,100.00
2022-10-28T18:35:36.092Z,100.00
2022-10-28T18:38:05.036Z,100.00
2022-10-28T18:40:33.903Z,100.00
2022-10-28T18:43:03.136Z,100.00
2022-10-28T18:45:36.067Z,100.00
2022-10-28T18:48:06.586Z,100.00
2022-10-28T18:50:35.406Z,100.00
2022-10-28T18:55:52.387Z,100.00
2022-10-28T19:01:11.688Z,100.00
2022-10-28T19:03:41.359Z,100.00
2022-10-28T19:06:12.320Z,100.00
2022-10-28T19:08:42.440Z,100.00
2022-10-28T19:11:13.842Z,100.00
2022-10-28T19:13:44.332Z,100.00
2022-10-28T19:19:02.695Z,100.00
2022-10-28T19:21:31.590Z,100.00
2022-10-28T19:26:47.648Z,100.00
2022-10-28T19:29:16.721Z,100.00
2022-10-28T19:31:47.510Z,100.00
2022-10-28T19:34:21.048Z,100.00
2022-10-28T19:36:49.956Z,100.00
2022-10-28T19:39:18.619Z,100.00
2022-10-28T19:41:50.903Z,100.00
2022-10-28T19:47:08.308Z,100.00
2022-10-28T19:49:43.447Z,100.00
2022-10-28T19:54:59.472Z,100.00
2022-10-28T19:57:28.215Z,100.00
2022-10-28T19:59:57.454Z,100.00
2022-10-28T20:02:28.646Z,100.00
2022-10-28T20:04:57.516Z,100.00
2022-10-28T20:07:26.479Z,100.00
2022-10-28T20:09:55.962Z,100.00
2022-10-28T20:12:24.944Z,100.00
2022-10-28T20:14:53.732Z,100.00
2022-10-28T20:17:22.727Z,100.00
2022-10-28T20:19:52.913Z,100.00
2022-10-28T20:22:21.879Z,100.00
2022-10-28T20:24:50.819Z,100.00
2022-10-28T20:27:19.588Z,100.00
2022-10-28T20:29:48.531Z,100.00
2022-10-28T20:32:17.491Z,100.00
2022-10-28T20:34:46.222Z,100.00
2022-10-28T20:40:06.371Z,100.00
2022-10-28T20:42:36.510Z,100.00
2022-10-28T20:45:05.716Z,100.00
2022-10-28T20:47:34.497Z,100.00
2022-10-28T20:55:38.276Z,100.00
2022-10-28T20:58:07.415Z,100.00
2022-10-28T21:00:36.301Z,100.00
2022-10-28T21:03:05.325Z,100.00
2022-10-28T21:08:22.521Z,100.00
2022-10-28T21:10:51.346Z,100.00
2022-10-28T21:13:20.297Z,100.00
2022-10-28T21:15:54.573Z,100.00
2022-10-28T21:21:13.346Z,100.00
2022-10-28T21:23:43.508Z,100.00
2022-10-28T21:26:14.867Z,100.00
2022-10-28T21:28:43.693Z,100.00
2022-10-28T21:34:04.475Z,100.00
2022-10-28T21:36:36.484Z,100.00
2022-10-28T21:39:06.761Z,100.00
2022-10-28T21:41:35.501Z,100.00
2022-10-28T21:44:06.899Z,100.00
2022-10-28T21:49:21.891Z,100.00
2022-10-28T21:51:50.812Z,100.00
2022-10-28T21:54:21.126Z,100.00
2022-10-28T21:56:51.003Z,100.00
2022-10-28T21:59:19.672Z,100.00
2022-10-28T22:04:34.807Z,100.00
2022-10-28T22:07:03.717Z,100.00
2022-10-28T22:09:37.662Z,100.00
2022-10-28T22:12:09.588Z,100.00
2022-10-28T22:14:39.112Z,100.00
2022-10-28T22:17:08.116Z,100.00
2022-10-28T22:19:36.662Z,100.00
2022-10-28T22:24:54.153Z,100.00
2022-10-28T22:27:23.417Z,100.00
2022-10-28T22:29:52.301Z,100.00
2022-10-28T22:32:20.849Z,100.00
2022-10-28T22:34:50.243Z,100.00
2022-10-28T22:37:19.128Z,100.00
2022-10-28T22:39:47.678Z,100.00
2022-10-28T22:45:05.596Z,100.00
2022-10-28T22:47:37.315Z,100.00
2022-10-28T22:50:06.918Z,100.00
2022-10-28T22:55:21.392Z,100.00
2022-10-28T22:57:54.452Z,100.00
2022-10-28T23:03:09.868Z,100.00
2022-10-28T23:05:38.998Z,100.00
2022-10-28T23:10:54.329Z,100.00
2022-10-28T23:16:12.408Z,100.00
2022-10-28T23:24:14.285Z,100.00
2022-10-28T23:26:43.887Z,100.00
2022-10-28T23:29:14.301Z,100.00
2022-10-28T23:31:43.076Z,100.00
2022-10-28T23:34:12.671Z,100.00
2022-10-28T23:39:27.859Z,100.00
2022-10-28T23:41:56.734Z,100.00
2022-10-28T23:47:16.440Z,100.00
2022-10-28T23:49:45.461Z,100.00
2022-10-28T23:52:14.397Z,100.00
2022-10-28T23:57:31.622Z,100.00
